Briefing drone pour La grand-croix

Rechercher une autre localisation

Conditions de vol :


Nous sommes le : Vendredi 30 juillet 2021
Il est 17:09 UTC (19:09 LT)

Lever de soleil : 03:57 UTC (05:57 LT)
Coucher de soleil : 19:38 UTC (21:38 LT)

Météo

L'essentiel des conditions de vol

VIGILANCE MÉTÉO FRANCE - Loire (42)
Vigilance Jaune : Orages
METAR de LFMH
LFMH 301700Z AUTO 01009KT 9999 SCT043 BKN050 BKN068 22/17 Q1014

Date d'émission: 30/07/2021
Heure d'émission: 17:00 UTC
Vent: 010° pour 9 KT (17 km/h)
Visibilité horizontale: > 10 km
Plafond :
- Nuages épars à 4300ft (1311m)
- Nuages morcelés à 5000ft (1524m)
- Nuages morcelés à 6800ft (2073m)
Température: 22 °C
Point de rosée: 17 °C
Humidité: 73%
Pression (QNH): 1014 hPa
TAF de LFMH
LFMH 161901Z 1619/1712 CNL

Conditions prévues :

Heure d'émission : Bulletin éffectué le 16 à 19:00 UTC
Prévision : Valide du 16 a 19:00 UTC au 17 a 12:00 UTC
Nuages : à 0ft (0 m)
WEBCAM POUR LA GRAND-CROIX

Réglementation

Voler en sécurité

CARTES AERONAUTIQUE 1/500.000
CARTES VAC (LFMH)
SUP AIP




Chargement des AIP...
NOTAM (LA GRAND-CROIX + Terrain à proximité / FIR )




Chargement des NOTAMS...
CONTACT PREFECTURE 42


Avertissement : Les données mises à disposition sont indicatives. Oxygène Drone ne pourra être tenu responsable de dégâts causés aux biens et aux personnes.